Time;durP1;ratioP1;P1;durP2;ratioP2;P2;SDS_P1;SDS_P2;PMS_P1;PMS_P2;Temp;Humidity;BMP_temperature;BMP_pressure;BME280_temperature;BME280_humidity;BME280_pressure;Samples;Min_cycle;Max_cycle;Signal;HPM_P1;HPM_P2
2023/04/04 00:02:17;;;;;;;2.60;2.50;;;;;;;0.54;68.70;102245.81;5955221;23;20086;-69
2023/04/04 00:05:50;;;;;;;2.72;2.63;;;;;;;0.96;69.11;102316.16;5966187;23;20683;-69
2023/04/04 00:16:12;;;;;;;2.50;2.40;;;;;;;0.74;69.91;102308.13;5932295;23;20020;-69
2023/04/04 00:18:40;;;;;;;2.30;2.20;;;;;;;0.18;69.74;102238.38;6002174;23;20070;-68
2023/04/04 00:24:37;;;;;;;3.22;3.03;;;;;;;0.57;70.75;102318.19;5996334;23;20021;-67
2023/04/04 00:27:04;;;;;;;2.40;2.30;;;;;;;0.36;71.14;102294.59;6024965;23;20533;-70
2023/04/04 00:29:33;;;;;;;7.90;3.22;;;;;;;-0.65;71.64;102142.44;6053145;23;20049;-70
2023/04/04 00:32:00;;;;;;;2.70;2.60;;;;;;;-0.01;71.19;102261.31;6023951;23;20033;-68
2023/04/04 00:34:26;;;;;;;4.15;2.92;;;;;;;0.35;72.34;102334.19;6030045;23;20042;-67
2023/04/04 00:36:53;;;;;;;2.92;2.83;;;;;;;0.34;72.46;102347.94;6055180;23;20277;-69
2023/04/04 00:39:19;;;;;;;4.07;3.88;;;;;;;0.35;72.66;102347.97;6075344;18;20272;-69
2023/04/04 00:42:12;;;;;;;2.88;2.75;;;;;;;0.32;72.99;102337.59;6005502;23;20420;-69
2023/04/04 00:45:24;;;;;;;3.22;3.05;;;;;;;0.44;72.50;102351.53;5989237;23;20035;-69
2023/04/04 00:47:54;;;;;;;2.88;2.78;;;;;;;-0.06;72.39;102262.97;5997490;23;20034;-70
2023/04/04 00:50:22;;;;;;;2.70;2.60;;;;;;;-1.10;72.16;102089.25;6019653;23;20023;-71
2023/04/04 00:53:15;;;;;;;2.53;2.42;;;;;;;-0.94;72.43;102121.31;6006616;23;20710;-68
2023/04/04 00:55:49;;;;;;;2.80;2.70;;;;;;;0.33;73.02;102354.81;6023991;23;20039;-69
2023/04/04 00:59:29;;;;;;;2.90;2.80;;;;;;;-0.69;72.67;102170.72;5947651;24;20096;-69
2023/04/04 01:02:10;;;;;;;2.78;2.67;;;;;;;0.30;73.06;102347.03;5781659;24;20179;-68
2023/04/04 01:05:06;;;;;;;2.85;2.75;;;;;;;0.25;73.44;102348.66;5839881;24;20026;-69
2023/04/04 01:07:53;;;;;;;2.67;2.58;;;;;;;0.20;73.69;102342.53;5781778;24;20787;-70
2023/04/04 01:10:56;;;;;;;2.47;2.38;;;;;;;0.08;74.04;102337.16;5845066;24;20362;-69
2023/04/04 01:13:52;;;;;;;2.70;2.60;;;;;;;0.19;74.30;102361.47;5767729;24;20135;-68
2023/04/04 01:16:29;;;;;;;2.80;2.70;;;;;;;0.15;74.50;102370.00;5821826;24;20009;-69
2023/04/04 01:19:00;;;;;;;2.60;2.50;;;;;;;0.12;74.32;102364.78;5867584;24;20051;-69
2023/04/04 01:21:44;;;;;;;2.65;2.55;;;;;;;0.11;74.79;102355.31;5903121;24;20029;-70
2023/04/04 01:24:27;;;;;;;2.70;2.60;;;;;;;0.04;74.71;102350.84;5952638;23;20100;-67
2023/04/04 01:26:56;;;;;;;2.45;2.35;;;;;;;-0.06;74.83;102342.97;5914294;24;20080;-69
2023/04/04 01:29:23;;;;;;;2.70;2.60;;;;;;;-0.09;75.34;102347.19;5946602;24;20023;-69
2023/04/04 01:32:03;;;;;;;2.60;2.50;;;;;;;-0.26;74.95;102331.38;5919815;24;20356;-68
2023/04/04 01:34:51;;;;;;;2.55;2.45;;;;;;;-0.21;75.67;102353.00;5944638;24;20040;-69
2023/04/04 01:37:26;;;;;;;2.60;2.50;;;;;;;-0.20;76.59;102359.91;6032659;23;20034;-68
2023/04/04 01:40:05;;;;;;;3.20;3.10;;;;;;;-0.21;76.16;102361.59;6007424;23;20038;-70
2023/04/04 01:42:32;;;;;;;2.55;2.45;;;;;;;-0.27;77.13;102352.88;6032851;23;20033;-69
2023/04/04 01:44:58;;;;;;;2.58;2.47;;;;;;;-0.27;77.01;102365.78;6025969;23;20033;-69
2023/04/04 01:47:25;;;;;;;3.40;3.20;;;;;;;-0.30;77.05;102357.97;6027928;23;20050;-69
2023/04/04 01:49:52;;;;;;;3.08;2.85;;;;;;;-0.62;77.32;102314.38;6009029;23;20660;-68
2023/04/04 01:52:21;;;;;;;3.00;2.90;;;;;;;-0.32;77.60;102357.97;6054549;23;20489;-69
2023/04/04 01:54:53;;;;;;;2.40;2.30;;;;;;;-0.35;78.60;102357.03;6022630;23;20097;-68
2023/04/04 01:57:20;;;;;;;2.80;2.70;;;;;;;-0.42;78.18;102353.47;6031053;23;20023;-69
2023/04/04 01:59:46;;;;;;;2.53;2.42;;;;;;;-0.73;78.75;102316.72;6037120;23;20011;-68
2023/04/04 02:02:13;;;;;;;2.80;2.70;;;;;;;-0.90;78.52;102282.88;6017891;23;20024;-69
2023/04/04 02:04:40;;;;;;;3.05;2.58;;;;;;;-0.45;78.60;102359.41;6029134;23;20018;-68
2023/04/04 02:07:07;;;;;;;2.50;2.40;;;;;;;-0.57;78.92;102351.44;6023231;23;20026;-68
2023/04/04 02:09:33;;;;;;;2.70;2.60;;;;;;;-0.65;78.92;102351.25;6031176;23;20023;-69
2023/04/04 02:12:02;;;;;;;3.25;3.10;;;;;;;-1.28;79.60;102267.47;6027842;23;20030;-68
2023/04/04 02:14:28;;;;;;;2.75;2.65;;;;;;;-0.61;79.67;102378.00;6048248;23;20292;-69
2023/04/04 02:16:55;;;;;;;2.60;2.50;;;;;;;-0.66;80.28;102366.69;6026951;23;20030;-69
2023/04/04 02:19:23;;;;;;;2.72;2.63;;;;;;;-1.07;79.42;102303.13;6022213;23;20680;-70
2023/04/04 02:21:59;;;;;;;9.90;9.40;;;;;;;-0.75;81.07;102364.81;5970230;23;20078;-69
2023/04/04 02:24:47;;;;;;;2.60;2.50;;;;;;;-1.01;80.51;102330.72;5996881;23;20141;-68
2023/04/04 02:27:14;;;;;;;2.72;2.63;;;;;;;-1.01;81.38;102335.88;6030567;23;20034;-69
2023/04/04 02:29:41;;;;;;;2.50;2.40;;;;;;;-1.05;81.61;102344.38;6022559;23;20106;-68
2023/04/04 02:32:08;;;;;;;2.85;2.75;;;;;;;-1.17;81.89;102320.94;6027384;23;20088;-68
2023/04/04 02:34:34;;;;;;;2.88;2.78;;;;;;;-1.46;82.07;102283.38;6024618;23;20040;-69
2023/04/04 02:37:01;;;;;;;2.50;2.40;;;;;;;-1.46;81.99;102295.41;6024503;23;20034;-69
2023/04/04 02:39:27;;;;;;;2.95;2.80;;;;;;;-1.18;83.54;102347.50;6023835;23;20550;-69
2023/04/04 02:41:54;;;;;;;2.63;2.53;;;;;;;-1.42;83.75;102328.09;6006139;23;20026;-69
2023/04/04 02:44:21;;;;;;;2.53;2.42;;;;;;;-1.23;84.15;102363.75;6025793;23;20034;-69
2023/04/04 02:46:48;;;;;;;2.70;2.60;;;;;;;-1.23;84.93;102368.03;6027020;23;20022;-69
2023/04/04 02:49:14;;;;;;;2.65;2.55;;;;;;;-1.51;85.92;102328.75;6028269;23;20042;-71
2023/04/04 02:51:41;;;;;;;2.55;2.45;;;;;;;-1.29;86.30;102371.31;6028475;23;20029;-73
2023/04/04 02:54:08;;;;;;;2.80;2.70;;;;;;;-1.25;87.60;102380.00;6027308;23;20038;-69
2023/04/04 02:56:38;;;;;;;2.58;2.47;;;;;;;-1.30;87.10;102371.31;6035003;23;20083;-69
2023/04/04 02:59:04;;;;;;;2.42;2.33;;;;;;;-1.79;87.36;102304.03;6033982;23;20049;-70
2023/04/04 03:01:31;;;;;;;2.90;2.80;;;;;;;-1.52;87.18;102336.44;6002622;23;19999;-69
2023/04/04 03:03:59;;;;;;;2.50;2.40;;;;;;;-1.37;87.19;102361.69;6029592;23;20030;-69
2023/04/04 03:06:30;;;;;;;2.83;2.72;;;;;;;-1.52;87.42;102336.44;6020576;23;20102;-68
2023/04/04 03:08:57;;;;;;;2.58;2.47;;;;;;;-2.61;87.50;102154.53;6031970;23;20041;-69
2023/04/04 03:11:23;;;;;;;2.35;2.25;;;;;;;-1.56;87.78;102334.59;6021814;23;20081;-68
2023/04/04 03:13:54;;;;;;;2.50;2.40;;;;;;;-1.57;87.21;102345.75;6025575;23;20094;-68
2023/04/04 03:16:21;;;;;;;2.50;2.40;;;;;;;-1.38;88.57;102380.53;6025793;23;20053;-68
2023/04/04 03:18:50;;;;;;;2.75;2.65;;;;;;;-1.68;87.74;102351.50;6003910;23;20038;-69
2023/04/04 03:21:17;;;;;;;2.78;2.67;;;;;;;-1.40;88.52;102398.53;6025842;23;20038;-70
2023/04/04 03:23:43;;;;;;;2.58;2.47;;;;;;;-1.46;88.31;102394.09;6027167;23;20031;-70
2023/04/04 03:26:10;;;;;;;2.70;2.60;;;;;;;-1.50;89.42;102391.44;6035007;23;20034;-68
2023/04/04 03:28:36;;;;;;;2.40;2.30;;;;;;;-1.93;88.86;102306.25;6028084;23;20026;-70
2023/04/04 03:31:06;;;;;;;2.65;2.45;;;;;;;-1.69;89.33;102348.88;6025283;23;20027;-68
2023/04/04 03:33:39;;;;;;;3.22;2.92;;;;;;;-1.32;90.30;102409.91;6048010;23;20026;-69
2023/04/04 03:36:11;;;;;;;2.95;2.85;;;;;;;-1.39;90.13;102389.97;6027127;23;20046;-69
2023/04/04 03:38:38;;;;;;;2.95;2.85;;;;;;;-1.28;89.49;102401.41;6025966;23;20022;-68
2023/04/04 03:41:05;;;;;;;2.80;2.70;;;;;;;-1.29;89.79;102393.63;6021801;23;20567;-69
2023/04/04 03:43:32;;;;;;;3.25;3.05;;;;;;;-1.28;89.78;102396.25;6030674;23;20093;-71
2023/04/04 03:46:03;;;;;;;2.35;2.25;;;;;;;-1.36;89.94;102376.28;6020446;23;20063;-68
2023/04/04 03:48:30;;;;;;;2.45;2.35;;;;;;;-1.53;90.04;102361.31;6018753;23;20018;-69
2023/04/04 03:50:57;;;;;;;2.60;2.50;;;;;;;-1.43;89.65;102364.97;6015051;23;20038;-68
2023/04/04 03:53:27;;;;;;;2.60;2.50;;;;;;;-1.17;89.37;102404.22;6028513;23;20023;-68
2023/04/04 03:55:59;;;;;;;2.38;2.28;;;;;;;-1.22;88.22;102406.72;6012737;23;20255;-69
2023/04/04 03:58:27;;;;;;;3.08;2.88;;;;;;;-1.79;88.21;102319.47;6019743;23;20029;-69
2023/04/04 04:00:54;;;;;;;3.58;2.50;;;;;;;-1.31;88.63;102390.16;6030706;23;20023;-69
2023/04/04 04:03:21;;;;;;;3.83;3.10;;;;;;;-2.09;89.14;102266.41;6021210;23;20023;-68
2023/04/04 04:05:47;;;;;;;2.63;2.53;;;;;;;-1.39;89.09;102377.09;6028602;23;20029;-69
2023/04/04 04:08:14;;;;;;;3.65;3.22;;;;;;;-1.39;89.39;102374.50;6023093;23;20081;-68
2023/04/04 04:10:41;;;;;;;6.32;3.47;;;;;;;-1.58;89.19;102355.19;6027072;23;20018;-69
2023/04/04 04:13:08;;;;;;;2.45;2.35;;;;;;;-1.88;89.10;102303.81;6023055;23;20019;-71
2023/04/04 04:15:34;;;;;;;2.70;2.60;;;;;;;-1.50;89.12;102370.81;6022409;23;20026;-68
2023/04/04 04:18:01;;;;;;;2.50;2.40;;;;;;;-1.54;89.78;102377.59;6014590;23;20052;-69
2023/04/04 04:20:28;;;;;;;2.30;2.20;;;;;;;-1.92;89.69;102310.59;6018567;23;20529;-69
2023/04/04 04:22:57;;;;;;;2.38;2.28;;;;;;;-1.53;89.94;102376.75;6027159;23;20094;-68
2023/04/04 04:25:27;;;;;;;7.13;3.47;;;;;;;-1.56;90.76;102373.22;6016557;23;20031;-70
2023/04/04 04:28:24;;;;;;;2.35;2.25;;;;;;;-1.63;90.52;102367.91;5992777;23;20035;-68
2023/04/04 04:31:29;;;;;;;2.30;2.20;;;;;;;-2.84;90.41;102174.50;6033892;23;20034;-70
2023/04/04 04:34:23;;;;;;;2.53;2.35;;;;;;;-1.65;91.16;102374.72;5919990;24;20041;-69
2023/04/04 04:37:42;;;;;;;2.28;2.17;;;;;;;-1.65;90.75;102385.03;5922131;24;20173;-70
2023/04/04 04:40:10;;;;;;;2.22;2.13;;;;;;;-2.43;90.54;102259.53;5874287;24;20288;-69
2023/04/04 04:42:42;;;;;;;2.55;2.42;;;;;;;-1.95;91.27;102335.38;5936527;24;20683;-69
2023/04/04 04:45:09;;;;;;;2.95;2.75;;;;;;;-1.78;91.13;102362.41;5998308;23;20606;-68
2023/04/04 04:47:36;;;;;;;3.47;2.67;;;;;;;-2.75;90.84;102233.84;6000250;23;20022;-69
2023/04/04 04:50:03;;;;;;;2.53;2.42;;;;;;;-1.83;92.15;102367.41;6032883;23;20107;-68
2023/04/04 04:52:30;;;;;;;2.47;2.38;;;;;;;-1.83;91.85;102380.28;5999649;23;20662;-72
2023/04/04 04:54:57;;;;;;;2.63;2.42;;;;;;;-1.82;92.32;102371.75;6030607;23;20413;-69
2023/04/04 04:57:23;;;;;;;2.88;2.78;;;;;;;-1.84;92.64;102377.69;6023490;23;20042;-69
2023/04/04 04:59:50;;;;;;;2.30;2.20;;;;;;;-1.93;92.22;102373.16;6028329;23;20105;-68
2023/04/04 05:02:16;;;;;;;2.67;2.58;;;;;;;-2.37;92.01;102300.84;6026554;23;20022;-69
2023/04/04 05:04:44;;;;;;;2.47;2.38;;;;;;;-2.04;92.75;102365.16;6027271;23;20035;-69
2023/04/04 05:07:11;;;;;;;2.40;2.30;;;;;;;-2.47;92.87;102302.28;6024970;23;20098;-69
2023/04/04 05:09:38;;;;;;;2.65;2.55;;;;;;;-2.30;92.99;102336.19;6028721;23;20026;-69
2023/04/04 05:12:04;;;;;;;2.20;2.10;;;;;;;-2.42;93.96;102320.41;6032044;23;20122;-68
2023/04/04 05:14:31;;;;;;;2.50;2.40;;;;;;;-2.24;94.59;102358.63;6031664;23;20034;-67
2023/04/04 05:16:57;;;;;;;2.20;2.10;;;;;;;-2.21;94.46;102371.53;6027901;23;20528;-68
2023/04/04 05:19:24;;;;;;;2.42;2.30;;;;;;;-2.21;95.06;102374.13;6025275;23;20414;-68
2023/04/04 05:21:51;;;;;;;2.28;2.17;;;;;;;-2.20;94.99;102375.88;6025932;23;20042;-68
2023/04/04 05:24:17;;;;;;;2.40;2.30;;;;;;;-2.50;95.39;102330.47;6026706;23;20034;-69
2023/04/04 05:26:45;;;;;;;2.47;2.38;;;;;;;-2.64;95.90;102311.25;6027263;23;20022;-70
2023/04/04 05:29:12;;;;;;;2.67;2.58;;;;;;;-2.63;95.90;102320.69;6036878;23;20089;-70
2023/04/04 05:31:39;;;;;;;2.60;2.50;;;;;;;-2.25;96.90;102370.59;6018328;23;20132;-70
2023/04/04 05:34:08;;;;;;;2.70;2.60;;;;;;;-2.35;96.06;102355.72;6024748;23;20018;-70
2023/04/04 05:36:35;;;;;;;2.20;2.10;;;;;;;-2.10;96.45;102395.00;6031253;23;20022;-69
2023/04/04 05:39:05;;;;;;;2.20;2.10;;;;;;;-1.99;97.10;102405.56;6005668;23;20023;-71
2023/04/04 05:41:32;;;;;;;2.63;2.53;;;;;;;-2.44;96.90;102325.50;6028645;23;20023;-69
2023/04/04 05:43:59;;;;;;;2.45;2.35;;;;;;;-2.08;97.37;102381.34;6002836;23;20084;-69
2023/04/04 05:46:25;;;;;;;2.40;2.30;;;;;;;-1.95;97.30;102382.53;6028014;23;20023;-70
2023/04/04 05:48:52;;;;;;;2.40;2.30;;;;;;;-1.79;98.01;102409.53;6006956;23;20478;-69
2023/04/04 05:51:19;;;;;;;2.70;2.60;;;;;;;-1.85;96.80;102393.94;6004460;23;20023;-69
2023/04/04 05:53:46;;;;;;;3.15;3.00;;;;;;;-2.87;97.76;102218.94;6035541;23;20030;-70
2023/04/04 05:56:13;;;;;;;2.60;2.50;;;;;;;-1.64;98.08;102432.25;6026798;23;20481;-69
2023/04/04 05:58:39;;;;;;;2.75;2.65;;;;;;;-1.61;97.88;102446.06;6031155;23;20084;-70
2023/04/04 06:01:07;;;;;;;2.55;2.45;;;;;;;-1.57;97.97;102431.56;6031790;23;20037;-70
2023/04/04 06:03:34;;;;;;;2.55;2.45;;;;;;;-1.52;97.45;102437.72;6023619;23;24373;-69
2023/04/04 06:06:03;;;;;;;3.90;2.35;;;;;;;-1.77;98.21;102397.59;6032565;23;20023;-69
2023/04/04 06:08:30;;;;;;;2.50;2.40;;;;;;;-1.91;97.95;102374.06;6033740;23;20021;-69
2023/04/04 06:11:05;;;;;;;2.20;2.10;;;;;;;-1.95;97.63;102361.97;6029441;23;20034;-70
2023/04/04 06:13:32;;;;;;;2.50;2.40;;;;;;;-1.53;98.77;102410.22;6026991;23;20262;-69
2023/04/04 06:15:58;;;;;;;2.40;2.30;;;;;;;-1.41;98.09;102420.81;6030409;23;20513;-69
2023/04/04 06:18:25;;;;;;;2.45;2.35;;;;;;;-1.04;98.21;102451.78;6026425;23;20033;-70
2023/04/04 06:20:51;;;;;;;2.33;2.22;;;;;;;-0.94;97.91;102456.31;6033723;23;20019;-70
2023/04/04 06:23:17;;;;;;;2.35;2.25;;;;;;;-0.73;98.08;102466.25;6028995;23;20098;-70
2023/04/04 06:25:44;;;;;;;2.90;2.70;;;;;;;-0.57;97.57;102464.88;6032945;23;20031;-70
2023/04/04 06:28:14;;;;;;;3.13;2.92;;;;;;;-0.46;96.44;102486.63;6024985;23;20027;-69
2023/04/04 06:30:42;;;;;;;3.05;2.95;;;;;;;-1.03;96.15;102356.47;6029625;23;20040;-71
2023/04/04 06:33:08;;;;;;;2.50;2.40;;;;;;;-0.48;95.42;102417.78;6025449;23;20142;-69
2023/04/04 06:35:35;;;;;;;2.40;2.30;;;;;;;-0.11;94.26;102462.44;6023879;23;20010;-70
2023/04/04 06:38:03;;;;;;;2.60;2.50;;;;;;;-0.02;92.19;102455.75;6007330;23;20054;-72
2023/04/04 06:40:30;;;;;;;2.75;2.65;;;;;;;-0.23;90.73;102389.06;6033934;23;20128;-69
2023/04/04 06:42:57;;;;;;;2.90;2.70;;;;;;;-0.34;90.30;102362.22;6020935;23;20039;-72
2023/04/04 06:45:24;;;;;;;2.58;2.47;;;;;;;0.05;90.59;102418.00;6030046;23;20088;-70
2023/04/04 06:47:52;;;;;;;2.70;2.60;;;;;;;0.30;90.51;102437.41;6029927;23;20092;-70
2023/04/04 06:50:21;;;;;;;3.38;3.03;;;;;;;0.58;90.42;102451.69;6028100;23;20030;-70
2023/04/04 06:52:48;;;;;;;2.50;2.40;;;;;;;0.77;89.58;102477.84;6015089;23;20395;-70
2023/04/04 06:55:16;;;;;;;2.60;2.50;;;;;;;0.91;86.89;102459.97;6027453;23;20676;-70
2023/04/04 06:57:42;;;;;;;2.90;2.80;;;;;;;0.92;85.54;102389.34;6029619;23;20108;-69
2023/04/04 07:00:09;;;;;;;3.03;2.92;;;;;;;1.16;84.12;102391.41;6034316;23;20022;-70
2023/04/04 07:02:38;;;;;;;2.80;2.70;;;;;;;1.50;82.97;102425.50;6029702;23;20059;-69
2023/04/04 07:05:06;;;;;;;2.50;2.40;;;;;;;1.66;79.80;102401.53;6026962;23;20037;-69
2023/04/04 07:07:32;;;;;;;3.50;3.30;;;;;;;1.84;76.85;102364.66;6027651;23;20010;-69
2023/04/04 07:09:58;;;;;;;2.80;2.70;;;;;;;1.95;75.29;102318.19;6027328;23;20064;-69
2023/04/04 07:12:25;;;;;;;3.20;3.05;;;;;;;1.98;71.81;102248.28;6028329;23;20077;-69
2023/04/04 07:14:51;;;;;;;2.92;2.83;;;;;;;1.78;70.35;102170.47;6028127;23;20043;-69
2023/04/04 07:17:18;;;;;;;2.95;2.85;;;;;;;2.32;69.74;102239.03;6027842;23;20030;-69
2023/04/04 07:19:50;;;;;;;2.90;2.80;;;;;;;1.90;68.75;102142.06;6028751;23;20031;-70
2023/04/04 07:22:17;;;;;;;2.70;2.60;;;;;;;2.17;67.76;102143.13;6025901;23;20622;-69
2023/04/04 07:24:43;;;;;;;2.97;2.88;;;;;;;2.38;65.71;102130.28;6032030;23;20019;-69
2023/04/04 07:27:10;;;;;;;2.50;2.30;;;;;;;2.53;64.81;102123.44;6002589;23;20035;-70
2023/04/04 07:29:36;;;;;;;2.95;2.85;;;;;;;2.73;66.36;102171.03;6032619;23;20034;-70
2023/04/04 07:32:03;;;;;;;3.00;2.90;;;;;;;2.88;64.13;102107.13;6028063;23;20027;-69
2023/04/04 07:34:29;;;;;;;3.70;3.35;;;;;;;2.84;61.67;102046.63;6000642;23;20031;-70
2023/04/04 07:36:56;;;;;;;2.60;2.50;;;;;;;2.90;61.32;102038.00;6026916;23;20015;-69
2023/04/04 07:39:22;;;;;;;2.90;2.80;;;;;;;3.09;61.44;102063.09;6024907;23;20094;-70
2023/04/04 07:41:52;;;;;;;2.85;2.75;;;;;;;3.08;61.22;102038.00;6023974;23;20026;-72
2023/04/04 07:44:18;;;;;;;2.80;2.70;;;;;;;3.31;59.70;102029.38;6027103;23;20678;-70
2023/04/04 07:46:45;;;;;;;2.80;2.70;;;;;;;3.57;59.23;102026.75;6018300;23;20033;-70
2023/04/04 07:49:21;;;;;;;3.40;3.03;;;;;;;3.48;57.92;101934.19;6030489;23;20022;-69
2023/04/04 07:51:47;;;;;;;3.38;3.17;;;;;;;3.44;57.21;101924.69;6030486;23;20081;-70
2023/04/04 07:54:14;;;;;;;3.72;3.50;;;;;;;3.13;56.15;101828.78;6031239;23;20046;-70
2023/04/04 07:56:40;;;;;;;3.17;3.08;;;;;;;3.56;56.66;101893.47;6028919;23;20026;-70
2023/04/04 07:59:07;;;;;;;2.70;2.60;;;;;;;3.73;57.57;101965.28;6021209;23;20064;-70
2023/04/04 08:01:34;;;;;;;3.05;2.95;;;;;;;3.84;55.54;101915.88;6030440;23;20018;-70
2023/04/04 08:04:00;;;;;;;3.03;2.92;;;;;;;4.13;55.05;101905.31;6029149;23;20026;-70
2023/04/04 08:06:27;;;;;;;3.28;3.05;;;;;;;4.35;53.62;101872.25;6029599;23;20440;-70
2023/04/04 08:08:54;;;;;;;3.03;2.83;;;;;;;4.11;52.46;101806.63;6002496;23;20035;-69
2023/04/04 08:11:21;;;;;;;3.10;3.00;;;;;;;4.13;52.97;101845.56;6000627;23;20146;-70
2023/04/04 08:13:48;;;;;;;3.10;3.00;;;;;;;3.79;52.95;101755.78;6027474;23;20043;-69
2023/04/04 08:16:14;;;;;;;3.30;2.90;;;;;;;3.91;52.80;101811.97;6025825;23;20034;-69
2023/04/04 08:18:41;;;;;;;3.50;3.30;;;;;;;3.80;54.06;101814.63;6026577;23;20073;-69
2023/04/04 08:21:08;;;;;;;3.65;3.20;;;;;;;4.16;53.10;101829.97;6025543;23;20043;-70
2023/04/04 08:23:34;;;;;;;3.60;3.40;;;;;;;4.09;51.50;101746.03;6048378;23;20085;-69
2023/04/04 08:26:01;;;;;;;3.08;2.97;;;;;;;4.14;52.04;101787.56;6020878;23;20050;-70
2023/04/04 08:28:27;;;;;;;15.15;3.30;;;;;;;4.47;53.50;101911.19;6026091;23;20039;-69
2023/04/04 08:30:54;;;;;;;3.10;3.00;;;;;;;4.55;51.83;101892.91;6026841;23;20038;-70
2023/04/04 08:33:24;;;;;;;3.08;2.97;;;;;;;4.67;51.98;101825.22;6020306;23;20576;-70
2023/04/04 08:36:09;;;;;;;3.85;3.55;;;;;;;4.19;50.86;101726.03;6028528;23;20043;-70
2023/04/04 08:38:36;;;;;;;3.20;3.10;;;;;;;4.42;51.26;101782.13;6029187;23;20022;-69
2023/04/04 08:41:02;;;;;;;3.00;2.90;;;;;;;4.44;50.68;101801.16;6032697;23;20031;-70
2023/04/04 08:43:33;;;;;;;3.25;3.15;;;;;;;3.99;51.29;101723.63;6033260;23;20074;-72
2023/04/04 08:46:02;;;;;;;3.35;2.80;;;;;;;4.28;52.64;101816.03;6030369;23;20658;-69
2023/04/04 08:48:31;;;;;;;3.60;3.30;;;;;;;4.55;52.45;101896.38;6033190;23;20405;-70
2023/04/04 08:50:59;;;;;;;3.60;3.40;;;;;;;4.55;51.71;101851.31;6031227;23;20598;-70
2023/04/04 08:53:28;;;;;;;3.88;3.58;;;;;;;4.60;50.58;101761.16;6029792;23;20014;-69
2023/04/04 08:55:58;;;;;;;3.30;3.10;;;;;;;4.85;49.71;101802.50;6033085;23;20039;-69
2023/04/04 08:58:26;;;;;;;3.40;3.20;;;;;;;5.34;49.96;101872.22;6027389;23;20030;-70
2023/04/04 09:00:53;;;;;;;3.50;3.30;;;;;;;4.79;50.43;101774.81;6032267;23;20037;-69
2023/04/04 09:03:28;;;;;;;3.92;3.72;;;;;;;5.12;49.46;101811.75;6022368;23;20098;-68
2023/04/04 09:05:55;;;;;;;3.40;3.30;;;;;;;4.97;49.62;101808.44;6028976;23;20039;-69
2023/04/04 09:08:25;;;;;;;3.35;3.17;;;;;;;5.04;50.18;101809.22;6033789;23;20030;-69
2023/04/04 09:10:52;;;;;;;3.15;3.00;;;;;;;4.67;49.38;101742.03;6035390;23;20026;-68
2023/04/04 09:13:20;;;;;;;3.72;3.33;;;;;;;4.89;49.78;101762.56;6027147;23;20027;-70
2023/04/04 09:15:49;;;;;;;3.20;3.10;;;;;;;4.95;48.95;101815.41;6031795;23;20754;-70
2023/04/04 09:18:17;;;;;;;3.92;3.72;;;;;;;5.09;50.13;101832.56;6026891;23;20046;-69
2023/04/04 09:20:47;;;;;;;4.05;3.78;;;;;;;5.17;48.63;101782.19;6030958;23;20046;-69
2023/04/04 09:23:17;;;;;;;3.30;3.10;;;;;;;5.11;46.58;101712.00;6028356;23;20034;-70
2023/04/04 09:25:48;;;;;;;3.38;3.28;;;;;;;4.80;47.53;101701.97;6034409;23;20084;-69
2023/04/04 09:28:19;;;;;;;4.68;4.28;;;;;;;5.24;46.80;101702.28;6022583;23;20036;-70
2023/04/04 09:30:50;;;;;;;3.10;3.00;;;;;;;5.27;46.66;101746.50;6007069;23;20042;-70
2023/04/04 09:33:20;;;;;;;3.90;3.70;;;;;;;5.42;48.16;101818.31;6026658;23;20103;-69
2023/04/04 09:35:53;;;;;;;3.20;3.10;;;;;;;5.50;48.08;101855.53;6034201;23;20026;-69
2023/04/04 09:38:25;;;;;;;6.93;6.28;;;;;;;5.98;47.74;101901.81;6022121;23;20097;-72
2023/04/04 09:40:53;;;;;;;3.40;3.30;;;;;;;5.68;47.14;101765.03;5997676;23;20056;-69
2023/04/04 09:43:23;;;;;;;4.10;3.90;;;;;;;6.28;46.13;101805.81;6020766;23;20714;-70
2023/04/04 09:45:50;;;;;;;3.20;3.10;;;;;;;6.36;45.12;101809.16;6031621;23;20093;-69
2023/04/04 09:48:31;;;;;;;3.92;3.72;;;;;;;6.17;47.32;101894.59;6003389;23;20030;-69
2023/04/04 09:50:58;;;;;;;3.35;3.22;;;;;;;5.64;47.26;101750.34;6030935;23;20030;-69
2023/04/04 09:53:26;;;;;;;3.47;3.38;;;;;;;6.02;46.43;101803.63;6021168;23;20506;-69
2023/04/04 09:55:53;;;;;;;4.10;3.85;;;;;;;6.04;44.76;101745.38;6027317;23;20034;-69
2023/04/04 09:58:28;;;;;;;4.60;4.30;;;;;;;6.35;45.04;101745.72;6024582;23;20029;-72
2023/04/04 10:00:58;;;;;;;4.10;3.42;;;;;;;6.23;44.80;101761.56;6005774;23;20059;-69
2023/04/04 10:03:26;;;;;;;4.25;4.05;;;;;;;6.14;45.75;101736.53;6030576;23;20032;-69
2023/04/04 10:06:01;;;;;;;3.42;3.33;;;;;;;6.55;46.31;101862.69;6000860;23;20031;-70
2023/04/04 10:08:32;;;;;;;4.50;4.22;;;;;;;6.88;46.20;101883.03;6028436;23;20018;-69
2023/04/04 10:11:01;;;;;;;3.55;3.25;;;;;;;7.24;45.72;101912.84;6029942;23;20050;-72
2023/04/04 10:13:40;;;;;;;4.32;4.00;;;;;;;6.79;44.72;101806.66;6030350;23;20084;-69
2023/04/04 10:16:07;;;;;;;3.50;3.40;;;;;;;6.92;46.56;101956.03;6031315;23;20057;-70
2023/04/04 10:18:35;;;;;;;4.43;4.13;;;;;;;6.89;45.06;101798.63;6027541;23;20043;-70
2023/04/04 10:21:04;;;;;;;3.42;3.33;;;;;;;6.78;45.25;101783.19;6031651;23;20023;-70
2023/04/04 10:23:44;;;;;;;4.60;4.32;;;;;;;7.04;43.89;101785.31;6023147;23;20463;-70
2023/04/04 10:26:11;;;;;;;3.55;3.35;;;;;;;7.16;43.18;101773.75;6032889;23;20029;-71
2023/04/04 10:28:39;;;;;;;4.25;3.95;;;;;;;7.13;42.99;101751.16;6033126;23;20054;-72
2023/04/04 10:31:16;;;;;;;4.00;3.80;;;;;;;7.19;42.81;101742.34;6027103;23;20099;-69
2023/04/04 10:34:06;;;;;;;4.03;3.72;;;;;;;7.37;43.55;101780.25;6026203;23;20148;-70
2023/04/04 10:36:44;;;;;;;4.97;4.68;;;;;;;7.28;42.86;101754.38;6016090;23;20032;-69
2023/04/04 10:39:31;;;;;;;5.47;5.07;;;;;;;6.55;43.25;101617.56;6022705;23;20491;-68
2023/04/04 10:41:58;;;;;;;4.00;3.80;;;;;;;6.35;43.41;101657.09;5992315;23;20097;-70
2023/04/04 10:44:32;;;;;;;3.40;3.30;;;;;;;7.13;44.04;101786.84;6021713;23;20271;-71
2023/04/04 10:47:20;;;;;;;3.85;3.65;;;;;;;7.48;43.23;101795.72;6011332;23;20366;-71
2023/04/04 10:49:49;;;;;;;4.28;3.97;;;;;;;7.56;42.23;101747.63;6023969;23;20031;-70
2023/04/04 10:52:18;;;;;;;3.90;3.70;;;;;;;8.01;42.33;101839.81;6029232;23;20039;-71
2023/04/04 10:54:47;;;;;;;8.50;4.05;;;;;;;7.92;41.49;101791.25;6025829;23;20106;-71
2023/04/04 10:57:14;;;;;;;4.15;3.95;;;;;;;7.66;41.54;101736.94;6023876;23;20450;-70
2023/04/04 11:00:00;;;;;;;5.25;3.90;;;;;;;7.35;41.53;101699.34;6000092;23;20081;-71
2023/04/04 11:02:46;;;;;;;4.43;4.13;;;;;;;7.58;41.69;101761.50;6023692;23;20031;-71
2023/04/04 11:05:22;;;;;;;3.58;3.47;;;;;;;7.43;41.40;101699.16;6022589;23;20018;-70
2023/04/04 11:07:58;;;;;;;4.35;4.10;;;;;;;7.91;42.08;101764.22;6031819;23;20026;-70
2023/04/04 11:10:32;;;;;;;12.80;4.05;;;;;;;7.84;41.16;101728.69;6024473;23;20019;-70
2023/04/04 11:13:07;;;;;;;3.70;3.50;;;;;;;8.11;42.37;101823.03;6033832;23;20019;-70
2023/04/04 11:16:00;;;;;;;4.40;4.10;;;;;;;8.06;41.10;101764.75;6003452;23;20034;-70
2023/04/04 11:18:44;;;;;;;4.00;3.80;;;;;;;7.83;40.97;101694.75;6029782;23;20019;-71
2023/04/04 11:21:14;;;;;;;6.68;4.15;;;;;;;8.15;42.34;101825.53;6027059;23;20046;-70
2023/04/04 11:23:46;;;;;;;4.10;3.90;;;;;;;8.17;40.67;101749.66;6026337;23;20047;-72
2023/04/04 11:26:18;;;;;;;;;;;;;;;8.25;39.81;101697.16;6026604;23;20027;-69
2023/04/04 11:28:45;;;;;;;4.10;3.90;;;;;;;8.09;39.31;101665.34;6030129;23;20606;-69
2023/04/04 11:31:19;;;;;;;5.72;4.45;;;;;;;8.22;40.42;101721.66;6030860;23;20106;-70
2023/04/04 11:34:06;;;;;;;6.50;4.13;;;;;;;8.59;39.60;101779.09;6019184;23;20716;-69
2023/04/04 11:36:36;;;;;;;4.57;4.28;;;;;;;8.47;40.51;101761.13;6005461;23;20087;-69
2023/04/04 11:39:05;;;;;;;4.30;4.05;;;;;;;8.05;41.03;101726.44;6016039;23;20453;-68
2023/04/04 11:41:56;;;;;;;4.47;4.18;;;;;;;8.13;41.63;101746.25;6000039;23;20034;-69
2023/04/04 11:44:24;;;;;;;3.90;3.70;;;;;;;8.19;41.94;101821.94;6025792;23;20023;-70
2023/04/04 11:46:56;;;;;;;6.15;4.47;;;;;;;8.13;41.12;101776.78;6014422;23;20027;-70
2023/04/04 11:49:30;;;;;;;4.13;3.92;;;;;;;8.12;40.76;101728.03;6024155;23;20034;-69
2023/04/04 11:51:57;;;;;;;4.70;4.40;;;;;;;7.52;40.67;101653.72;6026788;23;20027;-69
2023/04/04 11:54:23;;;;;;;5.25;4.75;;;;;;;8.45;39.99;101742.00;6028112;23;20026;-70
2023/04/04 11:56:50;;;;;;;4.60;4.28;;;;;;;8.61;39.76;101758.13;6022191;23;20035;-69
2023/04/04 11:59:18;;;;;;;4.10;3.80;;;;;;;8.69;39.48;101748.31;6023463;23;20022;-69